createdAt,value
2022-12-23T00:07:46.510Z,9.7
2022-12-23T00:17:47.070Z,9.8
2022-12-23T00:27:47.407Z,9.8
2022-12-23T00:37:48.345Z,9.8
2022-12-23T00:47:48.937Z,9.8
2022-12-23T00:57:49.905Z,9.7
2022-12-23T01:07:50.594Z,9.7
2022-12-23T01:17:51.476Z,9.7
2022-12-23T01:27:52.106Z,9.7
2022-12-23T01:37:52.837Z,9.7
2022-12-23T01:47:53.259Z,9.8
2022-12-23T01:57:53.729Z,9.8
2022-12-23T02:17:53.956Z,9.8
2022-12-23T03:27:57.284Z,9.8
2022-12-23T03:47:58.009Z,9.9
2022-12-23T03:57:58.412Z,9.9
2022-12-23T04:07:58.494Z,9.8
2022-12-23T04:17:58.675Z,9.8
2022-12-23T04:27:58.831Z,9.8
2022-12-23T04:37:59.762Z,9.7
2022-12-23T04:58:00.992Z,9.7
2022-12-23T05:08:01.458Z,9.7
2022-12-23T05:18:01.598Z,9.7
2022-12-23T05:38:02.717Z,9.7
2022-12-23T05:48:03.466Z,9.7
2022-12-23T06:08:05.570Z,9.7
2022-12-23T06:18:06.373Z,9.7
2022-12-23T06:28:06.774Z,9.7
2022-12-23T06:38:11.780Z,9.7
2022-12-23T06:58:08.625Z,9.6
2022-12-23T07:08:09.005Z,9.6
2022-12-23T07:18:09.702Z,9.5
2022-12-23T07:28:10.287Z,9.5
2022-12-23T07:38:10.735Z,9.5
2022-12-23T07:48:11.707Z,9.5
2022-12-23T07:58:12.398Z,9.5
2022-12-23T08:08:12.838Z,9.4
2022-12-23T08:18:13.709Z,9.4
2022-12-23T08:28:14.097Z,9.4
2022-12-23T08:38:14.275Z,9.4
2022-12-23T08:58:15.270Z,9.3
2022-12-23T09:08:16.196Z,9.3
2022-12-23T09:18:17.293Z,9.3
2022-12-23T09:28:18.230Z,9.3
2022-12-23T09:38:19.002Z,9.3
2022-12-23T09:48:20.016Z,9.4
2022-12-23T09:58:20.395Z,9.4
2022-12-23T10:08:20.663Z,9.3
2022-12-23T10:18:21.127Z,9.3
2022-12-23T10:28:21.623Z,9.3
2022-12-23T10:38:21.855Z,9.4
2022-12-23T10:48:22.336Z,9.4
2022-12-23T10:58:22.981Z,9.5
2022-12-23T11:08:23.204Z,9.6
2022-12-23T11:18:23.296Z,9.7
2022-12-23T11:28:23.456Z,9.7
2022-12-23T11:38:23.820Z,9.8
2022-12-23T11:58:25.233Z,9.7
2022-12-23T12:08:25.760Z,9.6
2022-12-23T12:38:27.953Z,9.5
2022-12-23T13:08:29.278Z,9.4
2022-12-23T13:28:31.179Z,9.3
2022-12-23T13:48:32.311Z,9.3
2022-12-23T14:18:33.655Z,9.3
2022-12-23T14:28:34.702Z,9.4
2022-12-23T14:48:35.227Z,9.3
2022-12-23T14:58:35.916Z,9.3
2022-12-23T15:08:36.979Z,9.2
2022-12-23T15:18:37.521Z,9.2
2022-12-23T15:38:39.024Z,9
2022-12-23T15:48:39.991Z,9
2022-12-23T16:08:41.377Z,8.9
2022-12-23T16:28:42.426Z,8.9
2022-12-23T16:38:43.058Z,8.9
2022-12-23T16:58:44.738Z,9
2022-12-23T17:08:45.326Z,9
2022-12-23T17:18:45.671Z,9.1
2022-12-23T17:28:46.707Z,9.3
2022-12-23T17:38:47.782Z,9.6
2022-12-23T17:58:49.252Z,10
2022-12-23T18:18:51.116Z,10.5
2022-12-23T18:28:51.512Z,10.7
2022-12-23T18:38:52.620Z,10.8
2022-12-23T18:48:52.862Z,10.9
2022-12-23T18:58:53.625Z,11
2022-12-23T19:08:53.920Z,10.9
2022-12-23T19:28:55.571Z,11
2022-12-23T19:38:56.502Z,11
2022-12-23T19:48:57.376Z,11.1
2022-12-23T19:58:57.738Z,11
2022-12-23T20:28:59.226Z,10.9
2022-12-23T20:49:00.219Z,10.9
2022-12-23T20:59:01.276Z,10.8
2022-12-23T21:09:02.147Z,10.8
2022-12-23T21:19:02.579Z,10.8
2022-12-23T21:39:03.739Z,10.6
2022-12-23T21:49:04.335Z,10.6
2022-12-23T22:19:06.510Z,10.5
2022-12-23T22:29:07.184Z,10.5
2022-12-23T22:39:07.877Z,10.5
2022-12-23T22:59:08.370Z,10.3
2022-12-23T23:09:08.733Z,10.2
2022-12-23T23:29:10.222Z,10.1
2022-12-23T23:39:10.898Z,10.1
2022-12-23T23:49:11.412Z,10.1
2022-12-23T23:59:12.165Z,10
